Perry, Louisiana
Current Conditions -  °F | °C
As of 5:50 AM on Saturday 25 Oct 2014 (Local Time) from KIYA Reporting Station
Clear Clear  
Wind Chill: 47°   Ceiling: Unl
Heat Index: 47°   Visibility: 10mi
Dew Point: 47°   Wind: 0mph
Humidity: 98%   Direction: NA
Pressure: 30.13"   Gusts: NA
Location:  29.95°N, 92.16°W
Report Text: KIYA 251050Z AUTO 00000KT 10SM CLR 08/08 A3013 RMK AO2 T00840081
Loading
Personal Weather Stations






























Interactive Weather Map
Tropical Storm Tracking
New forecast layout! Learn more

10-Day Weather Forecast

Advertisements
Track Severe Weather on mobile